Terminal Aerodrome Forecast
Issued by NWS Kansas City/Pleasant Hill, MO

Home | Current Version | Previous Version | Text Only | Print | Product List | Glossary On
Versions: 1 2 3 4 5 6 7 8 9 10 11 12 13 14 15 16
000
FTUS43 KEAX 270520
TAFMCI
TAF
KMCI 270520Z 2706/2806 VRB04KT P6SM FEW250
     FM271500 20011KT P6SM FEW050 SCT180
     FM280100 18007KT P6SM FEW140=

USA.gov is the U.S. government's official web portal to all federal, state and local government web resources and services.